Time;durP1;ratioP1;P1;durP2;ratioP2;P2;SDS_P1;SDS_P2;PMS_P1;PMS_P2;Temp;Humidity;BMP_temperature;BMP_pressure;BME280_temperature;BME280_humidity;BME280_pressure;Samples;Min_cycle;Max_cycle;Signal;HPM_P1;HPM_P2
2023/08/22 00:00:13;;;;;;;18.25;11.88;;;22.30;99.90;;;;;;5056398;28;20025;-67
2023/08/22 00:02:39;;;;;;;17.48;11.63;;;22.30;99.90;;;;;;5056379;28;20021;-67
2023/08/22 00:05:05;;;;;;;21.05;12.10;;;22.30;99.90;;;;;;5056338;28;20075;-66
2023/08/22 00:07:31;;;;;;;17.42;12.30;;;22.10;99.90;;;;;;5056301;28;20021;-66
2023/08/22 00:09:56;;;;;;;19.67;11.40;;;22.00;99.90;;;;;;5056164;28;20087;-66
2023/08/22 00:12:22;;;;;;;20.80;11.88;;;21.90;99.90;;;;;;5056477;28;20100;-66
2023/08/22 00:14:50;;;;;;;21.27;12.10;;;21.90;99.90;;;;;;5056512;28;20056;-67
2023/08/22 00:17:16;;;;;;;25.77;12.40;;;21.90;99.90;;;;;;5056055;28;20465;-67
2023/08/22 00:19:42;;;;;;;21.60;11.60;;;21.90;99.90;;;;;;5056059;28;20119;-67
2023/08/22 00:22:08;;;;;;;19.83;11.70;;;22.00;99.90;;;;;;5056314;28;20087;-67
2023/08/22 00:24:35;;;;;;;18.42;11.52;;;22.00;99.90;;;;;;5056383;28;20017;-66
2023/08/22 00:27:01;;;;;;;17.95;11.65;;;22.00;99.90;;;;;;5056131;28;20056;-67
2023/08/22 00:29:27;;;;;;;17.45;12.10;;;22.00;99.90;;;;;;5055789;28;20061;-68
2023/08/22 00:31:53;;;;;;;17.77;11.95;;;22.00;99.90;;;;;;5055798;28;20538;-67
2023/08/22 00:34:19;;;;;;;22.08;12.02;;;21.90;99.90;;;;;;5056255;28;20060;-66
2023/08/22 00:36:44;;;;;;;18.40;12.13;;;21.80;99.90;;;;;;5055727;28;20074;-67
2023/08/22 00:39:10;;;;;;;17.35;12.00;;;21.70;99.90;;;;;;5056237;28;20399;-68
2023/08/22 00:41:36;;;;;;;20.70;12.57;;;21.60;99.90;;;;;;5056171;28;20048;-66
2023/08/22 00:44:01;;;;;;;20.98;12.93;;;21.50;99.90;;;;;;5054359;28;20033;-66
2023/08/22 00:46:29;;;;;;;16.55;11.60;;;21.50;99.90;;;;;;5056246;28;20024;-66
2023/08/22 00:48:55;;;;;;;17.58;12.00;;;21.40;99.90;;;;;;5055107;28;20146;-67
2023/08/22 00:51:22;;;;;;;20.92;12.27;;;21.30;99.90;;;;;;5055474;28;20073;-67
2023/08/22 00:53:48;;;;;;;21.92;12.30;;;21.30;99.90;;;;;;5055484;28;20159;-67
2023/08/22 00:56:15;;;;;;;23.05;12.02;;;21.30;99.90;;;;;;5054429;28;20052;-67
2023/08/22 00:58:41;;;;;;;17.17;12.05;;;21.40;99.90;;;;;;5055245;28;20025;-67
2023/08/22 01:01:07;;;;;;;25.90;12.02;;;21.40;99.90;;;;;;5055238;28;20020;-68
2023/08/22 01:03:34;;;;;;;19.73;12.05;;;21.50;99.90;;;;;;5055233;28;20102;-67
2023/08/22 01:06:10;;;;;;;17.15;12.00;;;21.50;99.90;;;;;;5055223;28;20025;-67
2023/08/22 01:08:39;;;;;;;22.05;12.02;;;21.40;99.90;;;;;;5055271;28;20461;-67
2023/08/22 01:11:16;;;;;;;21.97;13.13;;;21.40;99.90;;;;;;5055633;28;20361;-67
2023/08/22 01:13:46;;;;;;;20.98;12.27;;;21.40;99.90;;;;;;5055869;28;20029;-67
2023/08/22 01:16:12;;;;;;;20.97;11.43;;;21.40;99.90;;;;;;5055020;28;20409;-67
2023/08/22 01:18:39;;;;;;;18.05;11.77;;;21.40;99.90;;;;;;5054680;28;20036;-67
2023/08/22 01:21:05;;;;;;;21.70;12.45;;;21.40;99.90;;;;;;5054841;28;20025;-67
2023/08/22 01:23:31;;;;;;;21.13;12.43;;;21.40;99.90;;;;;;5055087;28;20025;-67
2023/08/22 01:25:58;;;;;;;19.65;12.10;;;21.40;99.90;;;;;;5055091;28;20399;-67
2023/08/22 01:28:39;;;;;;;21.73;12.60;;;21.40;99.90;;;;;;5054899;28;20025;-67
2023/08/22 01:31:41;;;;;;;21.42;12.35;;;21.40;99.90;;;;;;5054788;28;20065;-67
2023/08/22 01:34:22;;;;;;;20.40;12.65;;;21.30;99.90;;;;;;5034404;28;20086;-67
2023/08/22 01:36:51;;;;;;;18.67;12.07;;;21.20;99.90;;;;;;5054904;28;20055;-66
2023/08/22 01:39:19;;;;;;;18.35;12.07;;;21.20;99.90;;;;;;5054757;28;20082;-67
2023/08/22 01:41:47;;;;;;;24.35;13.52;;;21.20;99.90;;;;;;5054464;28;20029;-67
2023/08/22 01:44:13;;;;;;;20.02;12.63;;;21.20;99.90;;;;;;5054454;28;20103;-67
2023/08/22 01:46:38;;;;;;;21.60;12.65;;;21.20;99.90;;;;;;5054378;28;20122;-67
2023/08/22 01:49:04;;;;;;;20.30;12.65;;;21.20;99.90;;;;;;5054531;28;20370;-66
2023/08/22 01:51:30;;;;;;;22.33;12.70;;;21.20;99.90;;;;;;5054579;28;20111;-67
2023/08/22 01:53:55;;;;;;;24.83;13.65;;;21.10;99.90;;;;;;5053087;28;20446;-67
2023/08/22 01:56:21;;;;;;;23.58;13.18;;;21.10;99.90;;;;;;5054196;28;20024;-67
2023/08/22 01:58:47;;;;;;;20.13;12.98;;;21.10;99.90;;;;;;5054136;28;20453;-66
2023/08/22 02:01:13;;;;;;;20.88;12.57;;;21.10;99.90;;;;;;5054679;28;20023;-67
2023/08/22 02:03:40;;;;;;;20.60;12.90;;;21.10;99.90;;;;;;5054091;28;20355;-67
2023/08/22 02:06:06;;;;;;;22.27;13.40;;;21.10;99.90;;;;;;5054050;28;20044;-67
2023/08/22 02:08:31;;;;;;;19.55;12.40;;;21.00;99.90;;;;;;5053828;28;20492;-67
2023/08/22 02:10:57;;;;;;;20.25;12.82;;;21.10;99.90;;;;;;5054014;28;20112;-67
2023/08/22 02:13:23;;;;;;;20.85;12.85;;;21.10;99.90;;;;;;5053636;28;20511;-67
2023/08/22 02:15:48;;;;;;;20.40;13.27;;;21.10;99.90;;;;;;5053784;28;20020;-67
2023/08/22 02:18:14;;;;;;;21.85;12.90;;;21.10;99.90;;;;;;5053994;28;20051;-68
2023/08/22 02:20:40;;;;;;;24.48;12.68;;;21.00;99.90;;;;;;5053784;28;20466;-68
2023/08/22 02:23:06;;;;;;;23.77;13.90;;;20.90;99.90;;;;;;5053751;28;20115;-68
2023/08/22 02:25:32;;;;;;;21.95;14.38;;;21.00;99.90;;;;;;5053766;28;20021;-67
2023/08/22 02:27:58;;;;;;;27.60;13.48;;;21.10;99.90;;;;;;5053613;28;20028;-68
2023/08/22 02:30:24;;;;;;;19.95;13.10;;;21.00;99.90;;;;;;5053483;28;20342;-68
2023/08/22 02:32:50;;;;;;;22.25;13.90;;;20.90;99.90;;;;;;5054185;28;20357;-68
2023/08/22 02:35:16;;;;;;;22.20;12.65;;;20.90;99.90;;;;;;5053924;28;20029;-68
2023/08/22 02:37:42;;;;;;;19.75;13.07;;;20.90;99.90;;;;;;5053971;28;20029;-68
2023/08/22 02:40:09;;;;;;;18.73;10.80;;;20.90;99.90;;;;;;5053839;28;20354;-68
2023/08/22 02:42:35;;;;;;;16.40;10.68;;;20.80;99.90;;;;;;5053521;28;20338;-69
2023/08/22 02:45:02;;;;;;;21.88;10.50;;;20.70;99.90;;;;;;5053783;28;20025;-68
2023/08/22 02:47:29;;;;;;;21.63;10.90;;;20.60;99.90;;;;;;5054173;28;20021;-67
2023/08/22 02:49:54;;;;;;;19.20;10.88;;;20.60;99.90;;;;;;5052947;28;20500;-68
2023/08/22 02:52:20;;;;;;;17.90;10.88;;;20.60;99.90;;;;;;5053477;28;20021;-68
2023/08/22 02:54:46;;;;;;;15.30;10.85;;;20.50;99.90;;;;;;5053454;28;20021;-67
2023/08/22 02:57:11;;;;;;;18.48;11.65;;;20.50;99.90;;;;;;5053609;28;20112;-68
2023/08/22 02:59:37;;;;;;;20.83;12.35;;;20.60;99.90;;;;;;5053592;28;20515;-68
2023/08/22 03:02:03;;;;;;;23.98;13.38;;;20.60;99.90;;;;;;5053518;28;20023;-67
2023/08/22 03:04:29;;;;;;;19.05;12.30;;;20.60;99.90;;;;;;5053415;28;20025;-68
2023/08/22 03:06:55;;;;;;;18.75;12.15;;;20.50;99.90;;;;;;5053532;28;20021;-68
2023/08/22 03:09:21;;;;;;;17.80;11.48;;;20.60;99.90;;;;;;5053407;28;20075;-68
2023/08/22 03:11:47;;;;;;;24.80;12.13;;;20.60;99.90;;;;;;5053718;28;20464;-68
2023/08/22 03:14:13;;;;;;;21.05;12.20;;;20.50;99.90;;;;;;5053651;28;20025;-68
2023/08/22 03:16:38;;;;;;;18.40;11.30;;;20.60;99.90;;;;;;5053883;28;20079;-68
2023/08/22 03:19:04;;;;;;;15.57;10.50;;;20.60;99.90;;;;;;5052992;28;20029;-67
2023/08/22 03:21:30;;;;;;;16.15;10.32;;;20.40;99.90;;;;;;5056366;28;20037;-68
2023/08/22 03:23:55;;;;;;;18.77;10.50;;;20.20;99.90;;;;;;5057465;28;20029;-67
2023/08/22 03:26:21;;;;;;;15.63;11.05;;;20.10;99.90;;;;;;5056442;28;20143;-68
2023/08/22 03:28:46;;;;;;;21.98;10.82;;;20.10;99.90;;;;;;5055767;28;20516;-68
2023/08/22 03:31:12;;;;;;;17.63;10.80;;;20.10;99.90;;;;;;5057086;28;20025;-68
2023/08/22 03:33:38;;;;;;;17.92;11.02;;;20.10;99.90;;;;;;5057040;28;20029;-68
2023/08/22 03:36:03;;;;;;;21.75;11.45;;;20.20;99.90;;;;;;5056718;28;20097;-68
2023/08/22 03:38:29;;;;;;;18.70;11.60;;;20.20;99.90;;;;;;5057029;28;20365;-67
2023/08/22 03:40:56;;;;;;;19.08;11.45;;;20.20;99.90;;;;;;5057437;28;20032;-68
2023/08/22 03:43:22;;;;;;;18.90;11.07;;;20.20;99.90;;;;;;5056837;28;20039;-68
2023/08/22 03:45:48;;;;;;;21.88;11.25;;;20.10;99.90;;;;;;5056848;28;20025;-68
2023/08/22 03:48:13;;;;;;;15.18;10.82;;;20.10;99.90;;;;;;5056476;28;20036;-68
2023/08/22 03:50:40;;;;;;;17.50;10.88;;;20.10;99.90;;;;;;5056337;28;20049;-68
2023/08/22 03:53:06;;;;;;;18.45;10.80;;;20.10;99.90;;;;;;5056753;28;20017;-68
2023/08/22 03:55:32;;;;;;;16.67;11.38;;;20.10;99.90;;;;;;5056680;28;20025;-68
2023/08/22 03:57:58;;;;;;;18.45;11.32;;;20.10;99.90;;;;;;5056655;28;20017;-68
2023/08/22 04:00:25;;;;;;;19.15;11.57;;;20.10;99.90;;;;;;5056582;28;20484;-68
2023/08/22 04:02:59;;;;;;;18.73;11.73;;;20.10;99.90;;;;;;5056757;28;20021;-68
2023/08/22 04:05:25;;;;;;;17.38;12.05;;;20.00;99.90;;;;;;5056848;28;20033;-68
2023/08/22 04:07:51;;;;;;;18.55;11.55;;;20.00;99.90;;;;;;5056741;28;20025;-68
2023/08/22 04:10:17;;;;;;;20.08;12.48;;;20.10;99.90;;;;;;5056572;28;20121;-68
2023/08/22 04:12:43;;;;;;;20.85;12.02;;;20.10;99.90;;;;;;5056877;28;20028;-68
2023/08/22 04:15:10;;;;;;;17.20;11.13;;;20.20;99.90;;;;;;5056819;28;20025;-68
2023/08/22 04:17:36;;;;;;;18.80;11.07;;;20.20;99.90;;;;;;5056269;28;20041;-68
2023/08/22 04:20:03;;;;;;;17.25;10.70;;;20.20;99.90;;;;;;5056267;28;20430;-68
2023/08/22 04:22:30;;;;;;;18.30;11.50;;;20.10;99.90;;;;;;5056204;28;20119;-68
2023/08/22 04:24:56;;;;;;;24.52;11.52;;;20.10;99.90;;;;;;5056144;28;20025;-67
2023/08/22 04:27:22;;;;;;;21.33;11.65;;;20.10;99.90;;;;;;5056554;28;20025;-67
2023/08/22 04:29:48;;;;;;;20.67;12.23;;;20.10;99.90;;;;;;5056076;28;20417;-68
2023/08/22 04:32:14;;;;;;;16.25;10.95;;;20.20;99.90;;;;;;5055908;28;20083;-67
2023/08/22 04:34:39;;;;;;;19.13;11.45;;;20.20;99.90;;;;;;5055672;28;20025;-68
2023/08/22 04:37:05;;;;;;;19.35;11.27;;;20.20;99.90;;;;;;5056393;28;20074;-67
2023/08/22 04:39:31;;;;;;;18.70;11.77;;;20.10;99.90;;;;;;5055776;28;20099;-67
2023/08/22 04:41:56;;;;;;;17.45;11.80;;;20.10;99.90;;;;;;5054566;28;20021;-67
2023/08/22 04:44:22;;;;;;;17.63;12.00;;;20.10;99.90;;;;;;5055984;28;20473;-67
2023/08/22 04:46:47;;;;;;;16.70;11.63;;;20.10;99.90;;;;;;5055715;28;20017;-67
2023/08/22 04:49:13;;;;;;;18.27;11.35;;;20.00;99.90;;;;;;5055611;28;20138;-67
2023/08/22 04:51:39;;;;;;;21.67;12.25;;;20.00;99.90;;;;;;5055848;28;20025;-68
2023/08/22 04:54:04;;;;;;;20.08;11.80;;;20.00;99.90;;;;;;5055720;28;20025;-67
2023/08/22 04:56:30;;;;;;;18.55;11.02;;;19.90;99.90;;;;;;5055554;28;20024;-69
2023/08/22 04:58:55;;;;;;;15.57;10.80;;;19.90;99.90;;;;;;5056267;28;20021;-68
2023/08/22 05:01:21;;;;;;;18.20;11.85;;;19.70;99.90;;;;;;5056158;28;20136;-68
2023/08/22 05:03:47;;;;;;;15.05;11.00;;;19.70;99.90;;;;;;5055419;28;20024;-69
2023/08/22 05:06:12;;;;;;;21.13;11.68;;;19.80;99.90;;;;;;5055634;28;20048;-68
2023/08/22 05:08:38;;;;;;;16.75;10.98;;;19.90;99.90;;;;;;5055362;28;20533;-69
2023/08/22 05:11:04;;;;;;;22.85;12.15;;;20.00;99.90;;;;;;5055550;28;20361;-68
2023/08/22 05:13:30;;;;;;;18.05;11.85;;;20.10;99.90;;;;;;5055371;28;20029;-68
2023/08/22 05:15:55;;;;;;;19.15;11.68;;;20.10;99.90;;;;;;5055425;28;20025;-68
2023/08/22 05:18:21;;;;;;;18.50;11.60;;;20.20;99.90;;;;;;5054894;28;20033;-68
2023/08/22 05:20:50;;;;;;;21.00;11.55;;;20.20;99.90;;;;;;5055075;28;20032;-68
2023/08/22 05:23:16;;;;;;;19.55;11.40;;;20.30;99.90;;;;;;5054972;28;20374;-68
2023/08/22 05:25:42;;;;;;;19.10;11.25;;;20.40;99.90;;;;;;5054888;28;20025;-68
2023/08/22 05:28:08;;;;;;;17.25;11.40;;;20.40;99.90;;;;;;5054741;28;20086;-68
2023/08/22 05:30:36;;;;;;;23.02;11.52;;;20.60;99.90;;;;;;5054488;28;20029;-68
2023/08/22 05:33:02;;;;;;;20.73;10.80;;;20.60;99.90;;;;;;5054781;28;20071;-67
2023/08/22 05:35:28;;;;;;;19.92;10.63;;;20.60;99.90;;;;;;5054703;28;20039;-67
2023/08/22 05:37:54;;;;;;;17.58;11.27;;;20.50;99.90;;;;;;5054660;28;20021;-68
2023/08/22 05:40:19;;;;;;;16.73;10.57;;;20.60;99.90;;;;;;5054862;28;20056;-67
2023/08/22 05:42:45;;;;;;;18.75;11.18;;;20.60;99.90;;;;;;5053695;28;20139;-68
2023/08/22 05:45:11;;;;;;;18.25;10.85;;;20.70;99.90;;;;;;5054809;28;20020;-67
2023/08/22 05:47:37;;;;;;;21.90;11.05;;;20.80;99.90;;;;;;5054187;28;20068;-67
2023/08/22 05:50:04;;;;;;;20.48;11.32;;;20.80;99.90;;;;;;5055409;28;20113;-67
2023/08/22 05:52:30;;;;;;;23.48;11.48;;;20.80;99.90;;;;;;5054680;28;20013;-67
2023/08/22 05:54:56;;;;;;;18.70;12.02;;;20.90;99.90;;;;;;5054396;28;20029;-67
2023/08/22 05:57:22;;;;;;;20.90;11.40;;;21.00;99.90;;;;;;5054363;28;20021;-67
2023/08/22 05:59:51;;;;;;;21.73;12.43;;;21.00;99.90;;;;;;5054007;28;20029;-67
2023/08/22 06:02:17;;;;;;;22.15;12.45;;;21.20;99.90;;;;;;5054250;28;20028;-67
2023/08/22 06:04:47;;;;;;;43.10;14.13;;;21.30;99.90;;;;;;5053117;28;20334;-67
2023/08/22 06:07:13;;;;;;;21.15;12.70;;;21.40;99.90;;;;;;5054066;28;20116;-67
2023/08/22 06:09:38;;;;;;;23.63;14.27;;;21.60;99.90;;;;;;5054499;28;20107;-67
2023/08/22 06:12:05;;;;;;;25.92;15.02;;;21.70;99.90;;;;;;5054112;28;20036;-67
2023/08/22 06:14:30;;;;;;;26.25;14.95;;;21.70;99.90;;;;;;5054327;28;20156;-68
2023/08/22 06:16:58;;;;;;;24.90;15.77;;;21.80;99.90;;;;;;5054397;28;20056;-68
2023/08/22 06:19:24;;;;;;;21.08;14.35;;;21.90;99.90;;;;;;5053676;28;20025;-67
2023/08/22 06:21:49;;;;;;;33.97;16.10;;;22.00;99.90;;;;;;5053978;28;20029;-67
2023/08/22 06:24:15;;;;;;;26.40;15.50;;;22.10;99.90;;;;;;5053932;28;20101;-67
2023/08/22 06:26:41;;;;;;;25.20;16.65;;;22.30;99.90;;;;;;5054510;28;20039;-66
2023/08/22 06:29:07;;;;;;;27.48;16.20;;;22.40;99.90;;;;;;5054286;28;20036;-68
2023/08/22 06:31:32;;;;;;;29.23;17.25;;;22.40;99.90;;;;;;5054126;28;20449;-69
2023/08/22 06:33:58;;;;;;;27.55;15.98;;;22.50;99.90;;;;;;5054041;28;20028;-67
2023/08/22 06:36:24;;;;;;;24.42;15.48;;;22.60;99.90;;;;;;5054009;28;20017;-67
2023/08/22 06:38:51;;;;;;;26.05;15.65;;;22.60;99.90;;;;;;5053744;28;20124;-68
2023/08/22 06:41:17;;;;;;;27.60;16.52;;;22.70;99.90;;;;;;5053983;28;20096;-67
2023/08/22 06:43:43;;;;;;;24.95;15.63;;;22.80;99.90;;;;;;5053986;28;20053;-68
2023/08/22 06:46:08;;;;;;;27.33;15.98;;;22.90;99.90;;;;;;5054236;28;20544;-67
2023/08/22 06:48:34;;;;;;;27.85;16.42;;;23.00;99.90;;;;;;5053038;28;20056;-68
2023/08/22 06:50:59;;;;;;;27.60;16.75;;;23.10;99.90;;;;;;5053958;28;20029;-67
2023/08/22 06:53:25;;;;;;;25.95;15.70;;;23.10;99.90;;;;;;5054127;28;20044;-71
2023/08/22 06:55:51;;;;;;;24.42;16.02;;;23.20;99.90;;;;;;5057810;28;20473;-72
2023/08/22 06:58:17;;;;;;;27.88;16.23;;;23.30;99.90;;;;;;5058070;28;20029;-73
2023/08/22 07:00:43;;;;;;;27.17;15.88;;;23.50;99.90;;;;;;5057699;28;20036;-72
2023/08/22 07:03:09;;;;;;;30.30;16.42;;;23.60;99.90;;;;;;5058258;28;20025;-72
2023/08/22 07:05:35;;;;;;;24.55;15.30;;;23.70;99.90;;;;;;5057652;28;20021;-72
2023/08/22 07:08:00;;;;;;;22.70;15.52;;;23.80;99.90;;;;;;5057855;28;20024;-73
2023/08/22 07:10:26;;;;;;;25.98;14.25;;;23.80;99.90;;;;;;5055870;28;20091;-72
2023/08/22 07:12:52;;;;;;;22.95;14.63;;;23.80;99.90;;;;;;5057231;28;20035;-72
2023/08/22 07:15:18;;;;;;;23.70;14.30;;;23.90;99.90;;;;;;5057973;28;20039;-73
2023/08/22 07:17:44;;;;;;;23.63;14.85;;;24.00;99.90;;;;;;5057370;28;20081;-72
2023/08/22 07:20:10;;;;;;;26.85;15.30;;;24.00;99.90;;;;;;5057088;28;20029;-72
2023/08/22 07:22:35;;;;;;;24.10;14.38;;;24.10;99.90;;;;;;5057330;28;20104;-72
2023/08/22 07:25:01;;;;;;;22.63;14.45;;;24.10;99.90;;;;;;5057291;28;20465;-73
2023/08/22 07:27:27;;;;;;;25.42;15.27;;;24.20;99.90;;;;;;5057460;28;20404;-73
2023/08/22 07:29:52;;;;;;;24.30;14.38;;;24.20;99.90;;;;;;5057349;28;20453;-71
2023/08/22 07:32:21;;;;;;;23.38;14.88;;;24.20;99.90;;;;;;5056877;28;20025;-71
2023/08/22 07:34:49;;;;;;;31.13;14.50;;;24.30;99.90;;;;;;5057143;28;20017;-72
2023/08/22 07:37:16;;;;;;;39.53;14.75;;;24.40;99.90;;;;;;5057063;28;20453;-72
2023/08/22 07:39:42;;;;;;;22.33;14.95;;;24.40;99.90;;;;;;5057798;28;20021;-73
2023/08/22 07:42:08;;;;;;;29.80;14.25;;;24.60;99.90;;;;;;5056941;28;20024;-72
2023/08/22 07:44:34;;;;;;;22.42;14.40;;;24.70;99.90;;;;;;5057486;28;20390;-72
2023/08/22 07:47:00;;;;;;;20.50;13.82;;;24.80;99.90;;;;;;5057637;28;20028;-72
2023/08/22 07:49:26;;;;;;;24.65;13.88;;;24.90;99.90;;;;;;5055149;28;20480;-73
2023/08/22 07:51:52;;;;;;;17.25;12.80;;;25.10;99.90;;;;;;5057096;28;20033;-71
2023/08/22 07:54:17;;;;;;;23.20;13.48;;;25.20;99.90;;;;;;5057316;28;20035;-72
2023/08/22 07:56:44;;;;;;;23.17;13.82;;;25.20;99.90;;;;;;5056950;28;20021;-72
2023/08/22 07:59:12;;;;;;;23.48;13.63;;;25.30;99.90;;;;;;5056624;28;20079;-72
2023/08/22 08:01:38;;;;;;;23.10;13.07;;;25.30;99.90;;;;;;5056310;28;20017;-72
2023/08/22 08:04:03;;;;;;;20.23;12.98;;;25.30;99.90;;;;;;5056868;28;20029;-72
2023/08/22 08:06:36;;;;;;;18.60;12.43;;;25.50;99.90;;;;;;5055542;28;20449;-72
2023/08/22 08:09:06;;;;;;;21.83;13.10;;;25.60;99.90;;;;;;5056335;28;20476;-73
2023/08/22 08:11:32;;;;;;;19.33;11.70;;;25.70;99.90;;;;;;5056341;28;20024;-72
2023/08/22 08:13:58;;;;;;;16.70;10.85;;;25.70;99.90;;;;;;5056229;28;20036;-72
2023/08/22 08:16:24;;;;;;;15.52;11.07;;;25.80;99.90;;;;;;5056433;28;20028;-73
2023/08/22 08:18:53;;;;;;;21.45;12.02;;;25.80;99.90;;;;;;5056273;28;20454;-72
2023/08/22 08:21:19;;;;;;;17.30;11.45;;;25.90;99.90;;;;;;5056869;28;20025;-72
2023/08/22 08:23:44;;;;;;;20.90;11.20;;;26.00;99.90;;;;;;5056102;28;20020;-72
2023/08/22 08:26:11;;;;;;;16.50;11.52;;;26.00;99.90;;;;;;5056209;28;20025;-72
2023/08/22 08:28:38;;;;;;;20.10;11.63;;;26.10;99.90;;;;;;5055861;28;20025;-72
2023/08/22 08:31:04;;;;;;;19.20;11.18;;;26.20;99.90;;;;;;5056397;28;20033;-73
2023/08/22 08:33:31;;;;;;;21.50;11.43;;;26.20;99.90;;;;;;5056446;28;20030;-73
2023/08/22 08:35:56;;;;;;;16.67;11.25;;;26.30;99.90;;;;;;5056199;28;20450;-72
2023/08/22 08:38:22;;;;;;;19.48;11.07;;;26.50;99.90;;;;;;5055853;28;20032;-72
2023/08/22 08:40:48;;;;;;;17.80;11.18;;;26.60;99.90;;;;;;5056409;28;20415;-71
2023/08/22 08:43:14;;;;;;;16.10;10.95;;;26.80;99.90;;;;;;5055345;28;20464;-72
2023/08/22 08:45:40;;;;;;;19.48;10.60;;;26.80;99.90;;;;;;5056376;28;20021;-72
2023/08/22 08:48:06;;;;;;;20.98;12.18;;;26.80;99.90;;;;;;5055647;28;20029;-71
2023/08/22 08:50:33;;;;;;;24.63;10.38;;;26.80;99.90;;;;;;5056229;28;20347;-73
2023/08/22 08:52:59;;;;;;;21.83;11.55;;;26.90;99.90;;;;;;5055310;28;20369;-71
2023/08/22 08:55:25;;;;;;;17.00;10.85;;;27.00;99.90;;;;;;5055884;28;20100;-71
2023/08/22 08:57:55;;;;;;;16.00;10.88;;;27.10;99.90;;;;;;5055590;28;20481;-71
2023/08/22 09:00:21;;;;;;;;;;;27.20;99.90;;;;;;5055937;28;20082;-72
2023/08/22 09:02:46;;;;;;;19.35;10.52;;;27.20;99.90;;;;;;5055168;28;20295;-71
2023/08/22 09:05:12;;;;;;;17.50;10.52;;;27.20;99.90;;;;;;5055892;28;20037;-71
2023/08/22 09:07:38;;;;;;;17.20;10.32;;;27.30;99.90;;;;;;5055932;28;20052;-72
2023/08/22 09:10:06;;;;;;;20.23;11.15;;;27.40;99.90;;;;;;5055139;28;20366;-72
2023/08/22 09:12:33;;;;;;;16.27;10.32;;;27.40;99.90;;;;;;5055688;28;20029;-72
2023/08/22 09:14:59;;;;;;;19.45;10.88;;;27.50;99.90;;;;;;5055386;28;20028;-71
2023/08/22 09:17:28;;;;;;;18.17;10.63;;;27.60;99.90;;;;;;5054152;28;20025;-71
2023/08/22 09:19:54;;;;;;;15.43;10.27;;;27.60;99.90;;;;;;5055068;28;20031;-71
2023/08/22 09:22:27;;;;;;;15.45;10.85;;;27.70;99.90;;;;;;5055080;28;20107;-70
2023/08/22 09:24:54;;;;;;;17.05;10.65;;;27.80;99.90;;;;;;5055336;28;20028;-71
2023/08/22 09:27:26;;;;;;;16.20;10.43;;;28.00;99.90;;;;;;5055441;28;20107;-71
2023/08/22 09:29:53;;;;;;;20.92;10.32;;;28.20;99.90;;;;;;5055010;28;20106;-70
2023/08/22 09:32:22;;;;;;;18.05;9.68;;;28.20;99.90;;;;;;5054970;28;20047;-72
2023/08/22 09:35:01;;;;;;;16.00;9.32;;;28.10;99.90;;;;;;5055047;28;20024;-72
2023/08/22 09:37:35;;;;;;;16.60;10.27;;;28.20;99.90;;;;;;5055187;28;20016;-71
2023/08/22 09:40:09;;;;;;;13.60;9.90;;;28.10;99.90;;;;;;5055022;28;20033;-71
2023/08/22 09:42:38;;;;;;;15.25;9.25;;;28.30;99.90;;;;;;5055701;28;20020;-71
2023/08/22 09:45:05;;;;;;;16.83;9.73;;;28.40;99.90;;;;;;5054325;28;20473;-72
2023/08/22 09:47:31;;;;;;;15.10;9.50;;;28.50;99.90;;;;;;5054658;28;20295;-71
2023/08/22 09:50:03;;;;;;;19.77;9.63;;;28.60;99.90;;;;;;5054376;28;20053;-70
2023/08/22 09:52:30;;;;;;;14.75;8.95;;;28.60;99.90;;;;;;5054581;28;20021;-71
2023/08/22 09:54:56;;;;;;;20.27;9.48;;;28.80;99.90;;;;;;5054723;28;20446;-71
2023/08/22 09:57:24;;;;;;;16.48;9.68;;;29.00;99.90;;;;;;5054355;28;20032;-71
2023/08/22 09:59:50;;;;;;;16.95;9.40;;;29.00;99.90;;;;;;5054352;28;20107;-71
2023/08/22 10:02:19;;;;;;;17.27;9.27;;;29.10;99.90;;;;;;5054300;28;20102;-71
2023/08/22 10:04:46;;;;;;;13.82;9.02;;;29.10;99.90;;;;;;5054203;28;20020;-71
2023/08/22 10:07:12;;;;;;;16.92;8.98;;;28.90;99.90;;;;;;5054717;28;20029;-71
2023/08/22 10:09:41;;;;;;;12.38;9.48;;;28.90;99.90;;;;;;5054205;28;20036;-71
2023/08/22 10:12:11;;;;;;;13.48;9.18;;;28.90;99.90;;;;;;5054106;28;20060;-71
2023/08/22 10:14:56;;;;;;;12.05;9.25;;;29.00;99.90;;;;;;5053818;28;20059;-72
2023/08/22 10:17:26;;;;;;;14.48;8.98;;;29.10;99.90;;;;;;5054105;28;20048;-72
2023/08/22 10:19:51;;;;;;;11.50;8.40;;;29.20;99.90;;;;;;5053952;28;20378;-71
2023/08/22 10:22:18;;;;;;;12.80;7.90;;;29.40;99.90;;;;;;5053865;28;20021;-72
2023/08/22 10:24:47;;;;;;;11.65;7.85;;;29.40;99.90;;;;;;5054442;28;20036;-72
2023/08/22 10:27:15;;;;;;;12.82;8.07;;;29.40;99.90;;;;;;5054405;28;20422;-72
2023/08/22 10:29:45;;;;;;;15.25;7.95;;;29.40;99.90;;;;;;5053775;28;20079;-71
2023/08/22 10:32:11;;;;;;;20.50;7.88;;;29.60;99.90;;;;;;5054115;28;20079;-71
2023/08/22 10:34:42;;;;;;;14.18;7.47;;;29.80;99.90;;;;;;5054098;28;20422;-71
2023/08/22 10:37:19;;;;;;;11.10;8.02;;;29.90;99.90;;;;;;5054523;28;20031;-71
2023/08/22 10:39:47;;;;;;;13.60;6.80;;;29.90;99.90;;;;;;5054099;28;20021;-71
2023/08/22 10:42:23;;;;;;;12.70;7.20;;;29.90;99.90;;;;;;5053770;28;20029;-72
2023/08/22 10:44:57;;;;;;;9.98;6.78;;;29.80;99.90;;;;;;5053431;28;20473;-71
2023/08/22 10:47:27;;;;;;;12.75;7.35;;;29.80;99.90;;;;;;5053887;28;20017;-71
2023/08/22 10:49:55;;;;;;;13.05;6.57;;;30.00;99.90;;;;;;5053600;28;20057;-71
2023/08/22 10:52:26;;;;;;;13.82;6.15;;;30.00;99.90;;;;;;5053252;28;20075;-71
2023/08/22 10:54:59;;;;;;;13.57;6.80;;;30.00;99.90;;;;;;5053669;28;20119;-71
2023/08/22 10:57:26;;;;;;;9.05;6.78;;;30.10;99.90;;;;;;5053480;28;20052;-71
2023/08/22 11:00:12;;;;;;;12.30;6.85;;;30.40;99.90;;;;;;5054090;28;20060;-71
2023/08/22 11:02:39;;;;;;;10.35;7.00;;;30.50;99.90;;;;;;5053590;28;20032;-70
2023/08/22 11:05:11;;;;;;;12.27;7.07;;;30.50;99.90;;;;;;5053453;28;20020;-70
2023/08/22 11:07:48;;;;;;;11.88;6.50;;;30.20;99.90;;;;;;5053445;28;20033;-71
2023/08/22 11:10:16;;;;;;;17.08;6.88;;;29.80;99.90;;;;;;5053404;28;20028;-71
2023/08/22 11:12:45;;;;;;;16.25;6.72;;;29.70;99.90;;;;;;5053359;28;20060;-70
2023/08/22 11:15:13;;;;;;;11.45;6.78;;;29.90;99.90;;;;;;5053995;28;20024;-71
2023/08/22 11:17:40;;;;;;;8.57;5.88;;;30.30;99.90;;;;;;5053497;28;20487;-72
2023/08/22 11:20:14;;;;;;;12.85;6.40;;;30.50;99.90;;;;;;5053408;28;20036;-72
2023/08/22 11:22:40;;;;;;;13.25;6.38;;;30.50;99.90;;;;;;5053681;28;20021;-72
2023/08/22 11:25:06;;;;;;;13.55;6.47;;;30.60;99.90;;;;;;5053821;28;20021;-71
2023/08/22 11:27:32;;;;;;;12.95;5.50;;;30.50;99.90;;;;;;5053238;28;20025;-72
2023/08/22 11:29:58;;;;;;;11.52;5.95;;;30.10;99.90;;;;;;5053341;28;20040;-71
2023/08/22 11:32:34;;;;;;;8.07;5.63;;;29.70;99.90;;;;;;5053227;28;20453;-72
2023/08/22 11:35:03;;;;;;;9.45;5.28;;;29.50;99.90;;;;;;5053305;28;20017;-71
2023/08/22 11:37:34;;;;;;;10.93;5.68;;;29.80;99.90;;;;;;5053772;28;20057;-71
2023/08/22 11:40:00;;;;;;;7.70;5.45;;;29.90;99.90;;;;;;5053341;28;20029;-70
2023/08/22 11:42:30;;;;;;;8.75;6.03;;;29.80;99.90;;;;;;5057082;28;20152;-71
2023/08/22 11:45:02;;;;;;;14.02;5.38;;;30.00;99.90;;;;;;5056968;28;20096;-71
2023/08/22 11:47:46;;;;;;;7.72;5.45;;;30.40;99.90;;;;;;5055518;28;20028;-71
2023/08/22 11:50:16;;;;;;;8.77;5.20;;;30.80;99.90;;;;;;5056779;28;20053;-70
2023/08/22 11:52:48;;;;;;;13.55;5.70;;;30.90;99.90;;;;;;5056730;28;20112;-71
2023/08/22 11:55:25;;;;;;;9.60;5.50;;;30.90;99.90;;;;;;5055329;28;20051;-71
2023/08/22 11:57:50;;;;;;;9.85;5.50;;;31.00;99.90;;;;;;5056706;28;20033;-71
2023/08/22 12:00:16;;;;;;;9.13;5.07;;;31.00;99.90;;;;;;5056595;28;20104;-71
2023/08/22 12:02:48;;;;;;;9.57;5.07;;;30.90;99.90;;;;;;5056572;28;20016;-71
2023/08/22 12:05:40;;;;;;;9.23;5.40;;;31.20;99.90;;;;;;5056350;28;20021;-71
2023/08/22 12:08:06;;;;;;;11.73;5.38;;;31.30;99.90;;;;;;5056475;28;20027;-71
2023/08/22 12:10:58;;;;;;;9.52;5.57;;;31.20;99.90;;;;;;5056391;28;20393;-71
2023/08/22 12:13:24;;;;;;;12.55;5.15;;;31.30;99.90;;;;;;5055538;28;20037;-71
2023/08/22 12:15:51;;;;;;;9.30;5.10;;;31.60;99.90;;;;;;5056361;28;20017;-71
2023/08/22 12:18:17;;;;;;;11.07;5.00;;;31.80;99.90;;;;;;5055957;28;20024;-71
2023/08/22 12:20:44;;;;;;;8.90;4.55;;;31.40;99.90;;;;;;5056081;28;20041;-71
2023/08/22 12:23:12;;;;;;;9.90;4.90;;;31.30;99.90;;;;;;5056070;28;20025;-70
2023/08/22 12:25:43;;;;;;;8.80;4.93;;;31.40;99.90;;;;;;5056107;28;20025;-71
2023/08/22 12:28:09;;;;;;;14.95;4.95;;;31.60;99.90;;;;;;5056113;28;20036;-70
2023/08/22 12:30:36;;;;;;;7.22;4.70;;;31.80;99.90;;;;;;5055893;28;20053;-71